sensor_id;sensor_type;location;lat;lon;timestamp;P1;durP1;ratioP1;P2;durP2;ratioP2
65368;SDS011;51970;53.484;49.488;2023-09-19T00:01:47;24.85;;;11.23;;
65368;SDS011;51970;53.484;49.488;2023-09-19T00:05:13;24.80;;;12.30;;
65368;SDS011;51970;53.484;49.488;2023-09-19T00:12:06;18.70;;;10.27;;
65368;SDS011;51970;53.484;49.488;2023-09-19T00:15:41;18.05;;;10.10;;
65368;SDS011;51970;53.484;49.488;2023-09-19T00:19:06;18.55;;;10.82;;
65368;SDS011;51970;53.484;49.488;2023-09-19T00:22:33;19.17;;;11.18;;
65368;SDS011;51970;53.484;49.488;2023-09-19T00:26:09;21.50;;;14.55;;
65368;SDS011;51970;53.484;49.488;2023-09-19T00:29:36;21.33;;;10.65;;
65368;SDS011;51970;53.484;49.488;2023-09-19T00:33:11;22.55;;;10.88;;
65368;SDS011;51970;53.484;49.488;2023-09-19T00:36:43;21.95;;;10.40;;
65368;SDS011;51970;53.484;49.488;2023-09-19T00:40:11;23.23;;;11.63;;
65368;SDS011;51970;53.484;49.488;2023-09-19T00:43:35;25.30;;;13.73;;
65368;SDS011;51970;53.484;49.488;2023-09-19T00:47:07;21.38;;;10.77;;
65368;SDS011;51970;53.484;49.488;2023-09-19T00:50:42;20.40;;;10.45;;
65368;SDS011;51970;53.484;49.488;2023-09-19T00:54:06;21.63;;;11.48;;
65368;SDS011;51970;53.484;49.488;2023-09-19T00:57:35;22.50;;;10.50;;
65368;SDS011;51970;53.484;49.488;2023-09-19T01:01:02;21.40;;;11.68;;
65368;SDS011;51970;53.484;49.488;2023-09-19T01:04:38;20.30;;;11.65;;
65368;SDS011;51970;53.484;49.488;2023-09-19T01:08:05;23.55;;;10.95;;
65368;SDS011;51970;53.484;49.488;2023-09-19T01:11:43;22.02;;;11.77;;
65368;SDS011;51970;53.484;49.488;2023-09-19T01:30:49;16.95;;;9.82;;
65368;SDS011;51970;53.484;49.488;2023-09-19T01:34:25;22.67;;;11.90;;
65368;SDS011;51970;53.484;49.488;2023-09-19T01:37:59;19.75;;;11.65;;
65368;SDS011;51970;53.484;49.488;2023-09-19T01:41:28;21.90;;;11.65;;
65368;SDS011;51970;53.484;49.488;2023-09-19T01:45:16;20.48;;;11.75;;
65368;SDS011;51970;53.484;49.488;2023-09-19T01:52:28;23.30;;;10.98;;
65368;SDS011;51970;53.484;49.488;2023-09-19T01:56:04;21.25;;;11.35;;
65368;SDS011;51970;53.484;49.488;2023-09-19T01:59:34;28.90;;;12.32;;
65368;SDS011;51970;53.484;49.488;2023-09-19T02:03:01;21.92;;;11.45;;
65368;SDS011;51970;53.484;49.488;2023-09-19T02:06:27;21.13;;;11.73;;
65368;SDS011;51970;53.484;49.488;2023-09-19T02:09:52;26.08;;;10.80;;
65368;SDS011;51970;53.484;49.488;2023-09-19T02:13:21;21.05;;;11.80;;
65368;SDS011;51970;53.484;49.488;2023-09-19T02:16:46;26.60;;;13.85;;
65368;SDS011;51970;53.484;49.488;2023-09-19T02:20:19;27.20;;;14.55;;
65368;SDS011;51970;53.484;49.488;2023-09-19T02:23:54;36.45;;;16.67;;
65368;SDS011;51970;53.484;49.488;2023-09-19T02:27:26;34.53;;;14.75;;
65368;SDS011;51970;53.484;49.488;2023-09-19T02:31:01;38.67;;;13.68;;
65368;SDS011;51970;53.484;49.488;2023-09-19T02:34:33;39.03;;;14.95;;
65368;SDS011;51970;53.484;49.488;2023-09-19T02:37:57;28.27;;;13.85;;
65368;SDS011;51970;53.484;49.488;2023-09-19T02:41:31;33.33;;;14.20;;
65368;SDS011;51970;53.484;49.488;2023-09-19T02:44:55;31.05;;;13.63;;
65368;SDS011;51970;53.484;49.488;2023-09-19T02:48:28;24.25;;;13.27;;
65368;SDS011;51970;53.484;49.488;2023-09-19T02:51:53;43.25;;;12.82;;
65368;SDS011;51970;53.484;49.488;2023-09-19T02:55:17;27.27;;;14.07;;
65368;SDS011;51970;53.484;49.488;2023-09-19T02:58:52;29.98;;;13.77;;
65368;SDS011;51970;53.484;49.488;2023-09-19T03:02:17;35.72;;;12.57;;
65368;SDS011;51970;53.484;49.488;2023-09-19T03:05:41;32.85;;;13.40;;
65368;SDS011;51970;53.484;49.488;2023-09-19T03:09:05;34.05;;;12.80;;
65368;SDS011;51970;53.484;49.488;2023-09-19T03:12:29;27.98;;;13.15;;
65368;SDS011;51970;53.484;49.488;2023-09-19T03:19:28;37.13;;;12.68;;
65368;SDS011;51970;53.484;49.488;2023-09-19T03:23:05;18.13;;;10.25;;
65368;SDS011;51970;53.484;49.488;2023-09-19T03:26:30;22.60;;;11.23;;
65368;SDS011;51970;53.484;49.488;2023-09-19T03:30:02;29.45;;;11.98;;
65368;SDS011;51970;53.484;49.488;2023-09-19T03:33:41;34.72;;;14.70;;
65368;SDS011;51970;53.484;49.488;2023-09-19T03:37:05;35.10;;;14.05;;
65368;SDS011;51970;53.484;49.488;2023-09-19T03:40:39;47.90;;;22.40;;
65368;SDS011;51970;53.484;49.488;2023-09-19T03:44:13;40.08;;;19.20;;
65368;SDS011;51970;53.484;49.488;2023-09-19T03:47:37;28.50;;;16.75;;
65368;SDS011;51970;53.484;49.488;2023-09-19T03:51:14;33.80;;;16.40;;
65368;SDS011;51970;53.484;49.488;2023-09-19T03:54:46;30.85;;;15.38;;
65368;SDS011;51970;53.484;49.488;2023-09-19T03:58:10;20.50;;;11.45;;
65368;SDS011;51970;53.484;49.488;2023-09-19T04:01:42;28.30;;;11.93;;
65368;SDS011;51970;53.484;49.488;2023-09-19T04:05:07;23.65;;;12.10;;
65368;SDS011;51970;53.484;49.488;2023-09-19T04:08:41;33.92;;;12.93;;
65368;SDS011;51970;53.484;49.488;2023-09-19T04:12:13;26.33;;;11.88;;
65368;SDS011;51970;53.484;49.488;2023-09-19T04:15:37;21.58;;;11.30;;
65368;SDS011;51970;53.484;49.488;2023-09-19T04:22:47;23.50;;;10.90;;
65368;SDS011;51970;53.484;49.488;2023-09-19T04:29:46;17.83;;;9.02;;
65368;SDS011;51970;53.484;49.488;2023-09-19T04:33:20;17.80;;;8.75;;
65368;SDS011;51970;53.484;49.488;2023-09-19T04:36:52;24.15;;;9.85;;
65368;SDS011;51970;53.484;49.488;2023-09-19T04:40:25;21.23;;;11.27;;
65368;SDS011;51970;53.484;49.488;2023-09-19T04:43:50;26.48;;;10.32;;
65368;SDS011;51970;53.484;49.488;2023-09-19T04:47:25;21.05;;;11.43;;
65368;SDS011;51970;53.484;49.488;2023-09-19T04:50:57;21.25;;;9.95;;
65368;SDS011;51970;53.484;49.488;2023-09-19T04:54:32;19.20;;;9.45;;
65368;SDS011;51970;53.484;49.488;2023-09-19T04:58:06;22.02;;;9.18;;
65368;SDS011;51970;53.484;49.488;2023-09-19T05:01:40;18.75;;;8.55;;
65368;SDS011;51970;53.484;49.488;2023-09-19T05:08:49;12.45;;;6.18;;
65368;SDS011;51970;53.484;49.488;2023-09-19T05:12:46;18.23;;;8.48;;
65368;SDS011;51970;53.484;49.488;2023-09-19T05:16:21;13.68;;;7.95;;
65368;SDS011;51970;53.484;49.488;2023-09-19T05:19:46;14.20;;;8.25;;
65368;SDS011;51970;53.484;49.488;2023-09-19T05:23:11;12.88;;;6.90;;
65368;SDS011;51970;53.484;49.488;2023-09-19T05:26:38;16.08;;;9.18;;
65368;SDS011;51970;53.484;49.488;2023-09-19T05:30:02;14.48;;;8.23;;
65368;SDS011;51970;53.484;49.488;2023-09-19T05:33:38;11.57;;;6.60;;
65368;SDS011;51970;53.484;49.488;2023-09-19T05:37:04;10.90;;;5.97;;
65368;SDS011;51970;53.484;49.488;2023-09-19T05:40:38;15.35;;;5.95;;
65368;SDS011;51970;53.484;49.488;2023-09-19T05:44:13;13.43;;;5.93;;
65368;SDS011;51970;53.484;49.488;2023-09-19T05:47:48;10.18;;;6.75;;
65368;SDS011;51970;53.484;49.488;2023-09-19T05:51:25;10.80;;;5.80;;
65368;SDS011;51970;53.484;49.488;2023-09-19T05:54:59;11.20;;;5.57;;
65368;SDS011;51970;53.484;49.488;2023-09-19T05:58:25;12.00;;;6.03;;
65368;SDS011;51970;53.484;49.488;2023-09-19T06:01:59;10.27;;;5.13;;
65368;SDS011;51970;53.484;49.488;2023-09-19T06:05:33;12.27;;;5.63;;
65368;SDS011;51970;53.484;49.488;2023-09-19T06:09:06;9.02;;;5.22;;
65368;SDS011;51970;53.484;49.488;2023-09-19T06:12:39;9.25;;;4.05;;
65368;SDS011;51970;53.484;49.488;2023-09-19T06:16:03;11.00;;;4.03;;
65368;SDS011;51970;53.484;49.488;2023-09-19T06:19:40;11.88;;;5.22;;
65368;SDS011;51970;53.484;49.488;2023-09-19T06:23:17;12.63;;;5.20;;
65368;SDS011;51970;53.484;49.488;2023-09-19T06:26:45;9.68;;;5.03;;
65368;SDS011;51970;53.484;49.488;2023-09-19T06:30:10;8.38;;;4.53;;
65368;SDS011;51970;53.484;49.488;2023-09-19T06:33:34;11.40;;;5.45;;
65368;SDS011;51970;53.484;49.488;2023-09-19T06:37:07;8.63;;;4.50;;
65368;SDS011;51970;53.484;49.488;2023-09-19T06:40:40;7.25;;;3.78;;
65368;SDS011;51970;53.484;49.488;2023-09-19T06:44:04;12.48;;;3.63;;
65368;SDS011;51970;53.484;49.488;2023-09-19T06:47:39;10.63;;;3.28;;
65368;SDS011;51970;53.484;49.488;2023-09-19T06:51:14;6.47;;;2.67;;
65368;SDS011;51970;53.484;49.488;2023-09-19T06:54:49;8.32;;;2.85;;
65368;SDS011;51970;53.484;49.488;2023-09-19T06:58:24;9.40;;;4.65;;
65368;SDS011;51970;53.484;49.488;2023-09-19T07:01:56;9.77;;;3.53;;
65368;SDS011;51970;53.484;49.488;2023-09-19T07:05:34;6.20;;;2.80;;
65368;SDS011;51970;53.484;49.488;2023-09-19T07:09:00;10.07;;;3.55;;
65368;SDS011;51970;53.484;49.488;2023-09-19T07:12:34;9.77;;;4.55;;
65368;SDS011;51970;53.484;49.488;2023-09-19T07:15:59;13.07;;;3.70;;
65368;SDS011;51970;53.484;49.488;2023-09-19T07:19:35;8.50;;;3.50;;
65368;SDS011;51970;53.484;49.488;2023-09-19T07:22:59;9.43;;;3.38;;
65368;SDS011;51970;53.484;49.488;2023-09-19T07:26:24;12.40;;;4.00;;
65368;SDS011;51970;53.484;49.488;2023-09-19T07:29:48;9.05;;;3.30;;
65368;SDS011;51970;53.484;49.488;2023-09-19T07:33:22;5.28;;;2.80;;
65368;SDS011;51970;53.484;49.488;2023-09-19T07:36:47;6.88;;;2.25;;
65368;SDS011;51970;53.484;49.488;2023-09-19T07:40:20;11.05;;;3.50;;
65368;SDS011;51970;53.484;49.488;2023-09-19T07:43:46;8.70;;;2.38;;
65368;SDS011;51970;53.484;49.488;2023-09-19T07:47:10;14.93;;;3.65;;
65368;SDS011;51970;53.484;49.488;2023-09-19T07:50:45;12.98;;;4.05;;
65368;SDS011;51970;53.484;49.488;2023-09-19T07:54:10;7.88;;;3.28;;
65368;SDS011;51970;53.484;49.488;2023-09-19T07:57:42;6.75;;;2.38;;
65368;SDS011;51970;53.484;49.488;2023-09-19T08:01:20;10.40;;;2.35;;
65368;SDS011;51970;53.484;49.488;2023-09-19T08:04:55;7.20;;;2.92;;
65368;SDS011;51970;53.484;49.488;2023-09-19T08:08:23;7.35;;;2.95;;
65368;SDS011;51970;53.484;49.488;2023-09-19T08:11:57;7.60;;;2.17;;
65368;SDS011;51970;53.484;49.488;2023-09-19T08:15:21;6.00;;;2.60;;
65368;SDS011;51970;53.484;49.488;2023-09-19T08:18:53;7.50;;;3.22;;
65368;SDS011;51970;53.484;49.488;2023-09-19T08:22:29;9.35;;;3.90;;
65368;SDS011;51970;53.484;49.488;2023-09-19T08:26:03;13.88;;;3.47;;
65368;SDS011;51970;53.484;49.488;2023-09-19T08:29:35;6.60;;;2.95;;
65368;SDS011;51970;53.484;49.488;2023-09-19T08:33:09;7.43;;;3.10;;
65368;SDS011;51970;53.484;49.488;2023-09-19T08:36:44;10.18;;;2.40;;
65368;SDS011;51970;53.484;49.488;2023-09-19T08:40:09;7.18;;;3.83;;
65368;SDS011;51970;53.484;49.488;2023-09-19T08:43:44;7.35;;;3.38;;
65368;SDS011;51970;53.484;49.488;2023-09-19T08:47:21;10.88;;;2.95;;
65368;SDS011;51970;53.484;49.488;2023-09-19T08:51:07;6.43;;;2.58;;
65368;SDS011;51970;53.484;49.488;2023-09-19T08:54:51;7.22;;;2.90;;
65368;SDS011;51970;53.484;49.488;2023-09-19T08:58:26;5.88;;;2.42;;
65368;SDS011;51970;53.484;49.488;2023-09-19T09:01:59;10.13;;;2.45;;
65368;SDS011;51970;53.484;49.488;2023-09-19T09:05:32;8.10;;;3.67;;
65368;SDS011;51970;53.484;49.488;2023-09-19T09:09:09;7.25;;;3.28;;
65368;SDS011;51970;53.484;49.488;2023-09-19T09:12:43;5.68;;;2.22;;
65368;SDS011;51970;53.484;49.488;2023-09-19T09:16:18;6.85;;;3.40;;
65368;SDS011;51970;53.484;49.488;2023-09-19T09:19:54;12.90;;;3.92;;
65368;SDS011;51970;53.484;49.488;2023-09-19T09:23:29;7.20;;;3.72;;
65368;SDS011;51970;53.484;49.488;2023-09-19T09:27:03;6.25;;;2.55;;
65368;SDS011;51970;53.484;49.488;2023-09-19T09:30:39;7.97;;;3.13;;
65368;SDS011;51970;53.484;49.488;2023-09-19T09:34:14;9.32;;;2.72;;
65368;SDS011;51970;53.484;49.488;2023-09-19T09:37:39;6.65;;;2.47;;
65368;SDS011;51970;53.484;49.488;2023-09-19T09:41:11;8.23;;;3.53;;
65368;SDS011;51970;53.484;49.488;2023-09-19T09:44:45;11.23;;;3.15;;
65368;SDS011;51970;53.484;49.488;2023-09-19T09:48:24;7.65;;;2.53;;
65368;SDS011;51970;53.484;49.488;2023-09-19T09:52:01;7.97;;;3.22;;
65368;SDS011;51970;53.484;49.488;2023-09-19T09:59:47;8.32;;;3.83;;
65368;SDS011;51970;53.484;49.488;2023-09-19T10:03:33;6.45;;;2.58;;
65368;SDS011;51970;53.484;49.488;2023-09-19T10:07:25;12.50;;;3.55;;
65368;SDS011;51970;53.484;49.488;2023-09-19T10:10:53;8.13;;;3.15;;
65368;SDS011;51970;53.484;49.488;2023-09-19T10:14:33;7.10;;;3.08;;
65368;SDS011;51970;53.484;49.488;2023-09-19T10:18:15;9.20;;;2.00;;
65368;SDS011;51970;53.484;49.488;2023-09-19T10:21:55;9.40;;;2.50;;
65368;SDS011;51970;53.484;49.488;2023-09-19T10:25:29;7.90;;;2.92;;
65368;SDS011;51970;53.484;49.488;2023-09-19T10:28:53;6.07;;;2.33;;
65368;SDS011;51970;53.484;49.488;2023-09-19T10:32:18;8.05;;;2.42;;
65368;SDS011;51970;53.484;49.488;2023-09-19T10:35:54;12.93;;;2.63;;
65368;SDS011;51970;53.484;49.488;2023-09-19T10:39:30;10.80;;;2.53;;
65368;SDS011;51970;53.484;49.488;2023-09-19T10:43:03;10.88;;;3.95;;
65368;SDS011;51970;53.484;49.488;2023-09-19T10:46:28;5.53;;;2.63;;
65368;SDS011;51970;53.484;49.488;2023-09-19T10:49:53;6.90;;;2.15;;
65368;SDS011;51970;53.484;49.488;2023-09-19T10:53:25;9.18;;;2.78;;
65368;SDS011;51970;53.484;49.488;2023-09-19T10:57:03;5.28;;;2.10;;
65368;SDS011;51970;53.484;49.488;2023-09-19T11:00:27;4.97;;;1.58;;
65368;SDS011;51970;53.484;49.488;2023-09-19T11:08:01;7.15;;;2.22;;
65368;SDS011;51970;53.484;49.488;2023-09-19T11:11:40;10.23;;;2.25;;
65368;SDS011;51970;53.484;49.488;2023-09-19T11:19:23;6.90;;;1.67;;
65368;SDS011;51970;53.484;49.488;2023-09-19T11:26:41;9.68;;;2.72;;
65368;SDS011;51970;53.484;49.488;2023-09-19T11:30:25;5.88;;;2.28;;
65368;SDS011;51970;53.484;49.488;2023-09-19T11:33:50;4.60;;;1.70;;
65368;SDS011;51970;53.484;49.488;2023-09-19T11:38:05;8.02;;;2.45;;
65368;SDS011;51970;53.484;49.488;2023-09-19T11:41:38;8.40;;;2.60;;
65368;SDS011;51970;53.484;49.488;2023-09-19T11:49:15;7.90;;;2.50;;
65368;SDS011;51970;53.484;49.488;2023-09-19T11:52:41;7.20;;;2.55;;
65368;SDS011;51970;53.484;49.488;2023-09-19T11:56:13;5.38;;;1.95;;
65368;SDS011;51970;53.484;49.488;2023-09-19T12:03:21;9.93;;;3.10;;
65368;SDS011;51970;53.484;49.488;2023-09-19T12:06:56;6.13;;;2.10;;
65368;SDS011;51970;53.484;49.488;2023-09-19T12:10:31;5.70;;;2.42;;
65368;SDS011;51970;53.484;49.488;2023-09-19T12:13:56;5.70;;;2.17;;
65368;SDS011;51970;53.484;49.488;2023-09-19T12:17:37;7.35;;;2.13;;
65368;SDS011;51970;53.484;49.488;2023-09-19T12:21:25;9.35;;;2.20;;
65368;SDS011;51970;53.484;49.488;2023-09-19T12:24:53;8.63;;;2.35;;
65368;SDS011;51970;53.484;49.488;2023-09-19T12:28:43;9.27;;;2.65;;
65368;SDS011;51970;53.484;49.488;2023-09-19T12:32:09;5.07;;;1.52;;
65368;SDS011;51970;53.484;49.488;2023-09-19T12:35:42;6.18;;;2.40;;
65368;SDS011;51970;53.484;49.488;2023-09-19T12:39:24;7.15;;;1.60;;
65368;SDS011;51970;53.484;49.488;2023-09-19T12:42:58;4.93;;;2.00;;
65368;SDS011;51970;53.484;49.488;2023-09-19T12:46:24;6.50;;;3.15;;
65368;SDS011;51970;53.484;49.488;2023-09-19T12:50:12;7.10;;;1.77;;
65368;SDS011;51970;53.484;49.488;2023-09-19T12:53:46;6.00;;;1.42;;
65368;SDS011;51970;53.484;49.488;2023-09-19T12:57:24;5.15;;;2.20;;
65368;SDS011;51970;53.484;49.488;2023-09-19T13:01:01;7.57;;;1.85;;
65368;SDS011;51970;53.484;49.488;2023-09-19T13:04:35;9.57;;;2.33;;
65368;SDS011;51970;53.484;49.488;2023-09-19T13:08:18;7.47;;;2.20;;
65368;SDS011;51970;53.484;49.488;2023-09-19T13:11:57;6.30;;;2.88;;
65368;SDS011;51970;53.484;49.488;2023-09-19T13:15:23;6.10;;;2.28;;
65368;SDS011;51970;53.484;49.488;2023-09-19T13:18:59;8.18;;;2.92;;
65368;SDS011;51970;53.484;49.488;2023-09-19T13:22:39;11.43;;;2.50;;
65368;SDS011;51970;53.484;49.488;2023-09-19T13:26:21;5.68;;;1.88;;
65368;SDS011;51970;53.484;49.488;2023-09-19T13:29:45;5.13;;;2.33;;
65368;SDS011;51970;53.484;49.488;2023-09-19T13:33:20;7.47;;;2.28;;
65368;SDS011;51970;53.484;49.488;2023-09-19T13:36:52;9.05;;;2.75;;
65368;SDS011;51970;53.484;49.488;2023-09-19T13:40:17;6.32;;;2.13;;
65368;SDS011;51970;53.484;49.488;2023-09-19T13:43:55;7.05;;;1.80;;
65368;SDS011;51970;53.484;49.488;2023-09-19T13:47:30;7.70;;;2.60;;
65368;SDS011;51970;53.484;49.488;2023-09-19T13:51:02;8.60;;;2.38;;
65368;SDS011;51970;53.484;49.488;2023-09-19T13:54:37;11.07;;;2.72;;
65368;SDS011;51970;53.484;49.488;2023-09-19T13:58:03;8.50;;;2.95;;
65368;SDS011;51970;53.484;49.488;2023-09-19T14:01:38;5.53;;;1.85;;
65368;SDS011;51970;53.484;49.488;2023-09-19T14:05:02;4.47;;;2.00;;
65368;SDS011;51970;53.484;49.488;2023-09-19T14:08:29;6.68;;;2.20;;
65368;SDS011;51970;53.484;49.488;2023-09-19T14:12:06;5.40;;;2.22;;
65368;SDS011;51970;53.484;49.488;2023-09-19T14:15:29;9.45;;;2.35;;
65368;SDS011;51970;53.484;49.488;2023-09-19T14:19:04;5.75;;;2.20;;
65368;SDS011;51970;53.484;49.488;2023-09-19T14:22:37;11.57;;;3.00;;
65368;SDS011;51970;53.484;49.488;2023-09-19T14:26:09;6.63;;;2.80;;
65368;SDS011;51970;53.484;49.488;2023-09-19T14:29:36;9.38;;;2.75;;
65368;SDS011;51970;53.484;49.488;2023-09-19T14:32:59;7.65;;;2.83;;
65368;SDS011;51970;53.484;49.488;2023-09-19T14:36:24;6.55;;;1.92;;
65368;SDS011;51970;53.484;49.488;2023-09-19T14:39:49;5.72;;;1.92;;
65368;SDS011;51970;53.484;49.488;2023-09-19T14:43:21;8.23;;;2.70;;
65368;SDS011;51970;53.484;49.488;2023-09-19T14:46:55;5.18;;;2.50;;
65368;SDS011;51970;53.484;49.488;2023-09-19T14:50:20;12.27;;;3.00;;
65368;SDS011;51970;53.484;49.488;2023-09-19T14:53:54;11.10;;;3.53;;
65368;SDS011;51970;53.484;49.488;2023-09-19T14:57:27;8.30;;;2.65;;
65368;SDS011;51970;53.484;49.488;2023-09-19T15:01:10;7.70;;;3.15;;
65368;SDS011;51970;53.484;49.488;2023-09-19T15:04:36;6.68;;;2.63;;
65368;SDS011;51970;53.484;49.488;2023-09-19T15:08:11;11.45;;;3.20;;
65368;SDS011;51970;53.484;49.488;2023-09-19T15:11:35;7.25;;;2.20;;
65368;SDS011;51970;53.484;49.488;2023-09-19T15:15:07;11.80;;;2.67;;
65368;SDS011;51970;53.484;49.488;2023-09-19T15:22:13;11.82;;;3.30;;
65368;SDS011;51970;53.484;49.488;2023-09-19T15:25:38;10.52;;;3.75;;
65368;SDS011;51970;53.484;49.488;2023-09-19T15:29:13;14.07;;;3.30;;
65368;SDS011;51970;53.484;49.488;2023-09-19T15:32:45;12.65;;;4.03;;
65368;SDS011;51970;53.484;49.488;2023-09-19T15:39:43;10.93;;;4.75;;
65368;SDS011;51970;53.484;49.488;2023-09-19T15:43:07;12.52;;;4.05;;
65368;SDS011;51970;53.484;49.488;2023-09-19T15:46:32;11.80;;;3.33;;
65368;SDS011;51970;53.484;49.488;2023-09-19T15:50:05;15.18;;;3.58;;
65368;SDS011;51970;53.484;49.488;2023-09-19T15:53:51;11.60;;;4.07;;
65368;SDS011;51970;53.484;49.488;2023-09-19T15:57:17;13.50;;;4.43;;
65368;SDS011;51970;53.484;49.488;2023-09-19T16:00:41;12.93;;;5.43;;
65368;SDS011;51970;53.484;49.488;2023-09-19T16:04:13;11.20;;;4.70;;
65368;SDS011;51970;53.484;49.488;2023-09-19T16:07:37;10.10;;;4.38;;
65368;SDS011;51970;53.484;49.488;2023-09-19T16:11:10;15.50;;;5.88;;
65368;SDS011;51970;53.484;49.488;2023-09-19T16:14:35;14.10;;;6.55;;
65368;SDS011;51970;53.484;49.488;2023-09-19T16:17:59;16.60;;;6.35;;
65368;SDS011;51970;53.484;49.488;2023-09-19T16:21:24;17.88;;;6.38;;
65368;SDS011;51970;53.484;49.488;2023-09-19T16:24:50;17.40;;;6.60;;
65368;SDS011;51970;53.484;49.488;2023-09-19T16:28:14;21.42;;;7.82;;
65368;SDS011;51970;53.484;49.488;2023-09-19T16:31:47;18.42;;;9.15;;
65368;SDS011;51970;53.484;49.488;2023-09-19T16:35:13;21.35;;;8.00;;
65368;SDS011;51970;53.484;49.488;2023-09-19T16:38:37;23.85;;;8.23;;
65368;SDS011;51970;53.484;49.488;2023-09-19T16:42:10;35.70;;;9.80;;
65368;SDS011;51970;53.484;49.488;2023-09-19T16:45:34;26.77;;;8.10;;
65368;SDS011;51970;53.484;49.488;2023-09-19T16:48:59;24.40;;;7.72;;
65368;SDS011;51970;53.484;49.488;2023-09-19T16:52:23;20.17;;;7.55;;
65368;SDS011;51970;53.484;49.488;2023-09-19T16:56:00;23.23;;;7.45;;
65368;SDS011;51970;53.484;49.488;2023-09-19T16:59:32;22.45;;;6.20;;
65368;SDS011;51970;53.484;49.488;2023-09-19T17:02:47;18.75;;;6.93;;
65368;SDS011;51970;53.484;49.488;2023-09-19T17:05:58;33.53;;;8.90;;
65368;SDS011;51970;53.484;49.488;2023-09-19T17:08:31;36.83;;;11.02;;
65368;SDS011;51970;53.484;49.488;2023-09-19T17:13:31;32.70;;;14.32;;
65368;SDS011;51970;53.484;49.488;2023-09-19T17:16:52;45.45;;;15.38;;
65368;SDS011;51970;53.484;49.488;2023-09-19T17:20:25;37.40;;;15.27;;
65368;SDS011;51970;53.484;49.488;2023-09-19T17:23:49;39.13;;;14.50;;
65368;SDS011;51970;53.484;49.488;2023-09-19T17:27:14;34.15;;;12.82;;
65368;SDS011;51970;53.484;49.488;2023-09-19T17:30:46;28.52;;;8.80;;
65368;SDS011;51970;53.484;49.488;2023-09-19T17:34:11;18.48;;;6.95;;
65368;SDS011;51970;53.484;49.488;2023-09-19T17:37:36;23.15;;;6.57;;
65368;SDS011;51970;53.484;49.488;2023-09-19T17:41:08;16.58;;;6.75;;
65368;SDS011;51970;53.484;49.488;2023-09-19T17:44:32;15.05;;;7.47;;
65368;SDS011;51970;53.484;49.488;2023-09-19T17:48:07;21.60;;;7.90;;
65368;SDS011;51970;53.484;49.488;2023-09-19T17:51:31;21.30;;;8.15;;
65368;SDS011;51970;53.484;49.488;2023-09-19T17:55:06;18.85;;;6.47;;
65368;SDS011;51970;53.484;49.488;2023-09-19T17:58:41;14.00;;;6.75;;
65368;SDS011;51970;53.484;49.488;2023-09-19T18:02:12;19.70;;;6.30;;
65368;SDS011;51970;53.484;49.488;2023-09-19T18:05:36;19.25;;;6.70;;
65368;SDS011;51970;53.484;49.488;2023-09-19T18:09:01;21.10;;;8.00;;
65368;SDS011;51970;53.484;49.488;2023-09-19T18:12:25;21.67;;;7.82;;
65368;SDS011;51970;53.484;49.488;2023-09-19T18:15:50;27.45;;;7.78;;
65368;SDS011;51970;53.484;49.488;2023-09-19T18:19:14;21.52;;;7.85;;
65368;SDS011;51970;53.484;49.488;2023-09-19T18:22:40;25.08;;;7.30;;
65368;SDS011;51970;53.484;49.488;2023-09-19T18:26:12;18.15;;;7.57;;
65368;SDS011;51970;53.484;49.488;2023-09-19T18:29:36;19.90;;;8.10;;
65368;SDS011;51970;53.484;49.488;2023-09-19T18:33:03;19.27;;;7.85;;
65368;SDS011;51970;53.484;49.488;2023-09-19T18:36:36;25.05;;;6.60;;
65368;SDS011;51970;53.484;49.488;2023-09-19T18:40:00;17.58;;;7.55;;
65368;SDS011;51970;53.484;49.488;2023-09-19T18:46:54;24.42;;;6.65;;
65368;SDS011;51970;53.484;49.488;2023-09-19T18:50:20;14.70;;;6.28;;
65368;SDS011;51970;53.484;49.488;2023-09-19T18:53:54;13.88;;;6.03;;
65368;SDS011;51970;53.484;49.488;2023-09-19T18:57:28;16.08;;;6.38;;
65368;SDS011;51970;53.484;49.488;2023-09-19T19:00:59;12.45;;;6.22;;
65368;SDS011;51970;53.484;49.488;2023-09-19T19:04:35;17.35;;;5.50;;
65368;SDS011;51970;53.484;49.488;2023-09-19T19:08:07;18.00;;;5.45;;
65368;SDS011;51970;53.484;49.488;2023-09-19T19:11:31;12.57;;;5.20;;
65368;SDS011;51970;53.484;49.488;2023-09-19T19:14:57;13.20;;;5.88;;
65368;SDS011;51970;53.484;49.488;2023-09-19T19:18:29;14.35;;;4.75;;
65368;SDS011;51970;53.484;49.488;2023-09-19T19:21:53;12.48;;;4.90;;
65368;SDS011;51970;53.484;49.488;2023-09-19T19:25:26;12.77;;;5.40;;
65368;SDS011;51970;53.484;49.488;2023-09-19T19:29:00;12.63;;;4.80;;
65368;SDS011;51970;53.484;49.488;2023-09-19T19:32:33;12.70;;;4.20;;
65368;SDS011;51970;53.484;49.488;2023-09-19T19:36:08;11.60;;;4.03;;
65368;SDS011;51970;53.484;49.488;2023-09-19T19:39:41;14.15;;;4.45;;
65368;SDS011;51970;53.484;49.488;2023-09-19T19:43:15;13.05;;;4.55;;
65368;SDS011;51970;53.484;49.488;2023-09-19T19:46:50;11.55;;;3.47;;
65368;SDS011;51970;53.484;49.488;2023-09-19T19:50:14;15.85;;;5.43;;
65368;SDS011;51970;53.484;49.488;2023-09-19T19:53:49;15.43;;;5.88;;
65368;SDS011;51970;53.484;49.488;2023-09-19T19:57:24;9.98;;;4.60;;
65368;SDS011;51970;53.484;49.488;2023-09-19T20:00:48;11.30;;;5.18;;
65368;SDS011;51970;53.484;49.488;2023-09-19T20:04:20;16.45;;;5.70;;
65368;SDS011;51970;53.484;49.488;2023-09-19T20:07:53;14.63;;;5.90;;
65368;SDS011;51970;53.484;49.488;2023-09-19T20:11:17;14.85;;;6.60;;
65368;SDS011;51970;53.484;49.488;2023-09-19T20:14:45;13.05;;;6.25;;
65368;SDS011;51970;53.484;49.488;2023-09-19T20:18:18;14.35;;;5.03;;
65368;SDS011;51970;53.484;49.488;2023-09-19T20:21:42;15.65;;;5.60;;
65368;SDS011;51970;53.484;49.488;2023-09-19T20:25:06;17.13;;;5.63;;
65368;SDS011;51970;53.484;49.488;2023-09-19T20:28:34;23.27;;;7.20;;
65368;SDS011;51970;53.484;49.488;2023-09-19T20:31:57;22.75;;;7.55;;
65368;SDS011;51970;53.484;49.488;2023-09-19T20:35:21;16.60;;;7.43;;
65368;SDS011;51970;53.484;49.488;2023-09-19T20:38:46;16.95;;;7.13;;
65368;SDS011;51970;53.484;49.488;2023-09-19T20:42:11;15.45;;;7.03;;
65368;SDS011;51970;53.484;49.488;2023-09-19T20:45:37;18.23;;;6.05;;
65368;SDS011;51970;53.484;49.488;2023-09-19T20:49:11;13.57;;;5.40;;
65368;SDS011;51970;53.484;49.488;2023-09-19T20:52:37;14.68;;;5.43;;
65368;SDS011;51970;53.484;49.488;2023-09-19T20:56:12;13.32;;;5.50;;
65368;SDS011;51970;53.484;49.488;2023-09-19T20:59:36;16.05;;;5.53;;
65368;SDS011;51970;53.484;49.488;2023-09-19T21:03:08;11.30;;;5.40;;
65368;SDS011;51970;53.484;49.488;2023-09-19T21:06:32;10.52;;;4.53;;
65368;SDS011;51970;53.484;49.488;2023-09-19T21:09:57;15.82;;;5.97;;
65368;SDS011;51970;53.484;49.488;2023-09-19T21:13:21;12.00;;;5.68;;
65368;SDS011;51970;53.484;49.488;2023-09-19T21:16:45;12.27;;;5.55;;
65368;SDS011;51970;53.484;49.488;2023-09-19T21:20:10;11.93;;;5.57;;
65368;SDS011;51970;53.484;49.488;2023-09-19T21:23:39;14.02;;;5.25;;
65368;SDS011;51970;53.484;49.488;2023-09-19T21:27:11;12.52;;;5.55;;
65368;SDS011;51970;53.484;49.488;2023-09-19T21:30:43;10.70;;;5.68;;
65368;SDS011;51970;53.484;49.488;2023-09-19T21:34:15;13.30;;;5.47;;
65368;SDS011;51970;53.484;49.488;2023-09-19T21:37:39;12.65;;;5.32;;
65368;SDS011;51970;53.484;49.488;2023-09-19T21:41:07;15.98;;;5.80;;
65368;SDS011;51970;53.484;49.488;2023-09-19T21:44:36;13.18;;;5.50;;
65368;SDS011;51970;53.484;49.488;2023-09-19T21:48:03;15.60;;;6.90;;